createdAt,value
2023-10-13T00:01:13.092Z,6.73
2023-10-13T00:03:41.909Z,7.37
2023-10-13T00:06:10.247Z,7.03
2023-10-13T00:08:39.533Z,7.17
2023-10-13T00:11:10.953Z,7.43
2023-10-13T00:13:44.456Z,7.33
2023-10-13T00:16:18.622Z,7.40
2023-10-13T00:18:47.181Z,7.37
2023-10-13T00:21:21.044Z,7.07
2023-10-13T00:23:55.351Z,7.30
2023-10-13T00:26:28.226Z,7.17
2023-10-13T00:29:09.672Z,7.60
2023-10-13T00:31:40.050Z,7.30
2023-10-13T00:34:12.655Z,7.50
2023-10-13T00:36:49.731Z,6.80
2023-10-13T00:39:18.421Z,7.27
2023-10-13T00:41:53.379Z,7.33
2023-10-13T00:44:29.410Z,7.50
2023-10-13T00:46:58.302Z,7.93
2023-10-13T00:49:25.974Z,7.53
2023-10-13T00:51:56.538Z,7.77
2023-10-13T00:54:28.204Z,7.60
2023-10-13T00:57:06.005Z,7.33
2023-10-13T00:59:37.529Z,7.57
2023-10-13T01:02:28.665Z,7.20
2023-10-13T01:04:56.062Z,7.63
2023-10-13T01:07:25.732Z,7.57
2023-10-13T01:09:53.209Z,7.90
2023-10-13T01:12:21.446Z,6.70
2023-10-13T01:14:50.283Z,8.07
2023-10-13T01:17:19.373Z,7.83
2023-10-13T01:19:50.314Z,8.67
2023-10-13T01:22:17.762Z,7.93
2023-10-13T01:24:47.429Z,7.87
2023-10-13T01:27:19.216Z,7.67
2023-10-13T01:29:51.434Z,7.90
2023-10-13T01:32:18.852Z,8.63
2023-10-13T01:34:49.535Z,7.90
2023-10-13T01:37:17.539Z,7.77
2023-10-13T01:39:48.917Z,7.80
2023-10-13T01:42:20.882Z,8.50
2023-10-13T01:44:49.395Z,9.13
2023-10-13T01:47:17.680Z,8.47
2023-10-13T01:49:48.472Z,9.23
2023-10-13T01:52:17.313Z,8.00
2023-10-13T01:54:47.477Z,8.27
2023-10-13T01:57:15.437Z,8.37
2023-10-13T01:59:45.319Z,7.50
2023-10-13T02:02:14.602Z,8.37
2023-10-13T02:04:49.985Z,7.97
2023-10-13T02:07:17.727Z,7.97
2023-10-13T02:09:48.359Z,7.63
2023-10-13T02:12:16.361Z,7.83
2023-10-13T02:14:45.935Z,8.30
2023-10-13T02:17:13.747Z,7.57
2023-10-13T02:19:46.113Z,7.77
2023-10-13T02:22:25.363Z,7.43
2023-10-13T02:24:55.162Z,7.43
2023-10-13T02:27:24.510Z,7.10
2023-10-13T02:29:59.568Z,7.53
2023-10-13T02:32:27.982Z,7.13
2023-10-13T02:35:06.816Z,7.03
2023-10-13T02:37:35.961Z,6.80
2023-10-13T02:40:07.119Z,6.87
2023-10-13T02:42:34.415Z,7.30
2023-10-13T02:45:04.654Z,6.70
2023-10-13T02:47:33.051Z,6.57
2023-10-13T02:50:12.738Z,6.50
2023-10-13T02:52:42.785Z,6.07
2023-10-13T02:55:15.989Z,6.43
2023-10-13T02:57:43.310Z,6.20
2023-10-13T03:00:17.401Z,6.43
2023-10-13T03:02:46.733Z,6.63
2023-10-13T03:05:17.472Z,6.70
2023-10-13T03:07:46.594Z,6.40
2023-10-13T03:10:16.663Z,7.33
2023-10-13T03:12:49.443Z,7.07
2023-10-13T03:15:18.919Z,6.43
2023-10-13T03:17:47.560Z,6.23
2023-10-13T03:20:17.614Z,6.50
2023-10-13T03:22:46.271Z,6.33
2023-10-13T03:25:24.201Z,6.00
2023-10-13T03:28:02.810Z,5.57
2023-10-13T03:30:39.450Z,5.77
2023-10-13T03:33:15.311Z,5.63
2023-10-13T03:35:46.309Z,5.73
2023-10-13T03:38:18.839Z,6.07
2023-10-13T03:40:57.385Z,5.97
2023-10-13T03:43:25.751Z,6.03
2023-10-13T03:46:01.937Z,5.10
2023-10-13T03:48:30.885Z,5.13
2023-10-13T03:51:08.213Z,5.80
2023-10-13T03:53:37.483Z,5.73
2023-10-13T03:56:13.341Z,5.43
2023-10-13T03:58:46.760Z,5.47
2023-10-13T04:01:17.077Z,5.60
2023-10-13T04:03:58.424Z,5.73
2023-10-13T04:06:49.681Z,5.80
2023-10-13T04:09:32.278Z,5.50
2023-10-13T04:12:16.439Z,5.23
2023-10-13T04:15:16.660Z,5.43
2023-10-13T04:17:47.195Z,4.80
2023-10-13T04:20:27.799Z,5.63
2023-10-13T04:23:28.428Z,5.20
2023-10-13T04:26:22.452Z,4.90
2023-10-13T04:28:54.184Z,5.33
2023-10-13T04:31:41.022Z,4.93
2023-10-13T04:34:17.146Z,4.90
2023-10-13T04:36:46.862Z,5.23
2023-10-13T04:39:30.376Z,5.00
2023-10-13T04:42:14.561Z,5.17
2023-10-13T04:44:50.156Z,5.17
2023-10-13T04:47:22.708Z,4.60
2023-10-13T04:49:54.447Z,4.93
2023-10-13T04:52:39.900Z,5.30
2023-10-13T04:55:18.247Z,5.10
2023-10-13T04:57:50.752Z,5.23
2023-10-13T05:00:49.343Z,4.87
2023-10-13T05:03:53.345Z,4.47
2023-10-13T05:06:48.049Z,5.17
2023-10-13T05:09:34.221Z,4.90
2023-10-13T05:12:20.216Z,4.63
2023-10-13T05:15:06.122Z,4.60
2023-10-13T05:17:53.804Z,4.67
2023-10-13T05:20:39.582Z,5.20
2023-10-13T05:23:25.752Z,5.23
2023-10-13T05:26:11.761Z,5.07
2023-10-13T05:29:18.524Z,5.40
2023-10-13T05:32:12.313Z,6.00
2023-10-13T05:34:59.463Z,5.17
2023-10-13T05:37:45.575Z,5.47
2023-10-13T05:40:31.471Z,5.53
2023-10-13T05:43:17.491Z,5.70
2023-10-13T05:45:59.692Z,5.10
2023-10-13T05:48:44.007Z,5.83
2023-10-13T05:51:27.662Z,5.07
2023-10-13T05:54:14.729Z,5.37
2023-10-13T05:57:00.821Z,5.27
2023-10-13T05:59:47.389Z,5.63
2023-10-13T06:02:33.608Z,5.47
2023-10-13T06:05:21.584Z,6.03
2023-10-13T06:08:11.209Z,5.43
2023-10-13T06:10:57.712Z,6.10
2023-10-13T06:13:40.038Z,5.67
2023-10-13T06:16:41.213Z,5.63
2023-10-13T06:19:27.202Z,6.57
2023-10-13T06:22:13.254Z,5.90
2023-10-13T06:25:00.348Z,5.27
2023-10-13T06:27:46.318Z,6.23
2023-10-13T06:30:14.737Z,5.67
2023-10-13T06:32:43.094Z,4.87
2023-10-13T06:35:19.960Z,5.83
2023-10-13T06:37:48.847Z,5.37
2023-10-13T06:40:27.187Z,5.43
2023-10-13T06:42:56.866Z,4.97
2023-10-13T06:45:29.276Z,5.63
2023-10-13T06:47:59.802Z,5.80
2023-10-13T06:50:30.094Z,4.93
2023-10-13T06:52:58.399Z,5.20
2023-10-13T06:55:28.856Z,5.20
2023-10-13T06:58:00.933Z,5.53
2023-10-13T07:00:31.049Z,4.63
2023-10-13T07:03:08.078Z,4.87
2023-10-13T07:05:39.048Z,5.17
2023-10-13T07:08:08.388Z,4.70
2023-10-13T07:10:46.002Z,5.30
2023-10-13T07:13:15.539Z,4.40
2023-10-13T07:15:47.013Z,4.50
2023-10-13T07:18:16.554Z,4.40
2023-10-13T07:20:48.054Z,4.67
2023-10-13T07:23:21.097Z,4.97
2023-10-13T07:26:03.756Z,4.53
2023-10-13T07:28:33.070Z,4.40
2023-10-13T07:31:15.370Z,4.13
2023-10-13T07:33:43.730Z,4.57
2023-10-13T07:36:29.162Z,4.70
2023-10-13T07:39:33.411Z,4.17
2023-10-13T07:42:07.077Z,4.87
2023-10-13T07:44:35.725Z,4.30
2023-10-13T07:47:05.255Z,4.50
2023-10-13T07:49:37.625Z,4.63
2023-10-13T07:52:28.135Z,4.60
2023-10-13T07:55:01.011Z,5.17
2023-10-13T07:57:31.368Z,3.90
2023-10-13T08:00:11.512Z,4.63
2023-10-13T08:02:52.875Z,4.50
2023-10-13T08:05:30.798Z,4.20
2023-10-13T08:07:59.070Z,4.50
2023-10-13T08:10:31.143Z,5.03
2023-10-13T08:13:00.899Z,4.53
2023-10-13T08:15:34.423Z,4.23
2023-10-13T08:18:08.206Z,4.50
2023-10-13T08:20:42.414Z,4.63
2023-10-13T08:23:21.439Z,5.23
2023-10-13T08:26:07.533Z,5.40
2023-10-13T08:28:57.966Z,4.60
2023-10-13T08:31:27.692Z,4.93
2023-10-13T08:34:06.966Z,4.60
2023-10-13T08:36:39.155Z,4.00
2023-10-13T08:39:38.428Z,4.80
2023-10-13T08:42:13.357Z,5.07
2023-10-13T08:44:48.480Z,5.07
2023-10-13T08:47:20.257Z,5.30
2023-10-13T08:49:52.980Z,4.90
2023-10-13T08:52:47.062Z,4.90
2023-10-13T08:55:30.115Z,5.03
2023-10-13T08:58:04.487Z,4.97
2023-10-13T09:00:48.591Z,5.60
2023-10-13T09:03:40.073Z,5.20
2023-10-13T09:06:08.136Z,5.40
2023-10-13T09:09:05.252Z,5.53
2023-10-13T09:11:44.873Z,5.30
2023-10-13T09:14:34.073Z,5.37
2023-10-13T09:17:11.045Z,4.90
2023-10-13T09:19:49.287Z,5.53
2023-10-13T09:22:29.195Z,5.53
2023-10-13T09:25:00.376Z,5.30
2023-10-13T09:27:29.168Z,5.40
2023-10-13T09:29:57.073Z,5.80
2023-10-13T09:32:28.976Z,5.53
2023-10-13T09:35:02.733Z,5.00
2023-10-13T09:37:34.509Z,5.30
2023-10-13T09:40:25.457Z,5.80
2023-10-13T09:42:56.803Z,5.57
2023-10-13T09:45:37.320Z,5.10
2023-10-13T09:48:17.445Z,5.47
2023-10-13T09:50:45.845Z,6.30
2023-10-13T09:53:15.359Z,5.60
2023-10-13T09:58:15.790Z,5.20
2023-10-13T10:00:50.842Z,6.40
2023-10-13T10:03:41.485Z,5.47
2023-10-13T10:06:17.599Z,5.77
2023-10-13T10:08:52.056Z,5.57
2023-10-13T10:11:35.174Z,5.73
2023-10-13T10:14:06.589Z,5.80
2023-10-13T10:16:43.662Z,5.33
2023-10-13T10:19:13.301Z,5.33
2023-10-13T10:21:42.264Z,6.07
2023-10-13T10:24:25.036Z,5.50
2023-10-13T10:26:54.128Z,5.50
2023-10-13T10:29:22.553Z,5.60
2023-10-13T10:31:51.986Z,5.77
2023-10-13T10:34:23.585Z,5.47
2023-10-13T10:36:57.095Z,5.90
2023-10-13T10:39:45.998Z,5.73
2023-10-13T10:42:18.492Z,5.80
2023-10-13T10:44:48.833Z,6.17
2023-10-13T10:47:31.804Z,5.40
2023-10-13T10:50:08.821Z,5.97
2023-10-13T10:52:40.660Z,5.77
2023-10-13T10:55:10.430Z,5.63
2023-10-13T10:57:39.253Z,5.23
2023-10-13T11:00:15.881Z,5.43
2023-10-13T11:02:44.458Z,5.20
2023-10-13T11:05:18.333Z,5.23
2023-10-13T11:07:51.110Z,5.73
2023-10-13T11:10:27.933Z,4.50
2023-10-13T11:12:56.922Z,4.70
2023-10-13T11:15:34.691Z,5.50
2023-10-13T11:18:06.844Z,5.07
2023-10-13T11:20:45.826Z,4.97
2023-10-13T11:23:14.866Z,4.83
2023-10-13T11:25:45.669Z,4.80
2023-10-13T11:28:21.065Z,4.80
2023-10-13T11:30:51.795Z,5.20
2023-10-13T11:33:24.748Z,4.97
2023-10-13T11:35:57.695Z,4.83
2023-10-13T11:38:30.122Z,4.73
2023-10-13T11:41:14.022Z,4.77
2023-10-13T11:44:03.383Z,4.90
2023-10-13T11:46:49.305Z,4.53
2023-10-13T11:49:26.090Z,5.03
2023-10-13T11:52:03.301Z,4.73
2023-10-13T11:54:31.658Z,4.73
2023-10-13T11:57:00.184Z,5.07
2023-10-13T11:59:29.255Z,4.53
2023-10-13T12:02:15.204Z,4.60
2023-10-13T12:04:50.352Z,4.40
2023-10-13T12:07:21.074Z,4.43
2023-10-13T12:10:07.673Z,5.00
2023-10-13T12:12:44.189Z,5.23
2023-10-13T12:15:26.498Z,5.40
2023-10-13T12:17:59.184Z,5.03
2023-10-13T12:20:34.749Z,5.10
2023-10-13T12:23:18.355Z,4.90
2023-10-13T12:25:55.970Z,4.87
2023-10-13T12:28:27.644Z,5.10
2023-10-13T12:30:58.460Z,5.40
2023-10-13T12:33:28.185Z,5.03
2023-10-13T12:36:07.857Z,4.60
2023-10-13T12:39:13.546Z,5.37
2023-10-13T12:41:59.501Z,5.03
2023-10-13T12:44:46.875Z,4.37
2023-10-13T12:47:33.666Z,4.90
2023-10-13T12:50:08.917Z,4.27
2023-10-13T12:52:37.369Z,4.87
2023-10-13T12:55:11.290Z,4.40
2023-10-13T12:57:45.553Z,4.80
2023-10-13T13:00:34.079Z,4.80
2023-10-13T13:03:12.436Z,5.13
2023-10-13T13:05:45.926Z,5.50
2023-10-13T13:08:23.037Z,4.67
2023-10-13T13:10:53.588Z,5.20
2023-10-13T13:13:25.767Z,5.30
2023-10-13T13:15:54.316Z,4.30
2023-10-13T13:18:22.608Z,4.50
2023-10-13T13:20:55.418Z,5.07
2023-10-13T13:23:27.103Z,4.67
2023-10-13T13:25:59.202Z,4.83
2023-10-13T13:28:30.182Z,4.33
2023-10-13T13:30:59.085Z,4.53
2023-10-13T13:33:27.760Z,4.37
2023-10-13T13:36:00.722Z,4.53
2023-10-13T13:38:32.822Z,4.70
2023-10-13T13:41:04.814Z,4.80
2023-10-13T13:43:52.358Z,5.33
2023-10-13T13:46:25.959Z,5.00
2023-10-13T13:48:59.632Z,5.50
2023-10-13T13:51:33.204Z,5.20
2023-10-13T13:54:04.434Z,4.60
2023-10-13T13:56:39.786Z,5.13
2023-10-13T13:59:10.296Z,4.53
2023-10-13T14:01:41.427Z,4.60
2023-10-13T14:04:09.992Z,4.87
2023-10-13T14:06:38.926Z,4.40
2023-10-13T14:09:18.654Z,4.70
2023-10-13T14:12:06.036Z,4.83
2023-10-13T14:14:35.534Z,4.50
2023-10-13T14:17:09.040Z,4.57
2023-10-13T14:19:41.594Z,4.77
2023-10-13T14:22:13.331Z,4.47
2023-10-13T14:24:48.560Z,4.40
2023-10-13T14:27:20.471Z,4.53
2023-10-13T14:29:49.077Z,5.20
2023-10-13T14:32:17.822Z,4.63
2023-10-13T14:34:49.580Z,4.40
2023-10-13T14:37:27.656Z,4.90
2023-10-13T14:39:57.950Z,5.07
2023-10-13T14:42:28.335Z,5.07
2023-10-13T14:44:59.537Z,4.23
2023-10-13T14:47:28.675Z,4.27
2023-10-13T14:50:00.012Z,4.63
2023-10-13T14:52:33.155Z,4.90
2023-10-13T14:55:01.838Z,4.50
2023-10-13T14:57:31.424Z,4.43
2023-10-13T14:59:59.939Z,5.00
2023-10-13T15:02:28.352Z,4.20
2023-10-13T15:04:58.787Z,4.93
2023-10-13T15:07:29.161Z,4.27
2023-10-13T15:09:58.169Z,4.63
2023-10-13T15:12:29.072Z,4.47
2023-10-13T15:15:00.061Z,4.10
2023-10-13T15:17:30.491Z,4.67
2023-10-13T15:20:00.846Z,4.03
2023-10-13T15:22:29.401Z,4.30
2023-10-13T15:25:10.109Z,4.97
2023-10-13T15:27:42.623Z,4.60
2023-10-13T15:30:23.986Z,4.00
2023-10-13T15:32:52.882Z,4.37
2023-10-13T15:35:23.763Z,4.70
2023-10-13T15:37:52.978Z,4.40
2023-10-13T15:40:22.420Z,4.43
2023-10-13T15:42:50.647Z,4.07
2023-10-13T15:45:20.437Z,4.30
2023-10-13T15:50:22.318Z,4.37
2023-10-13T15:52:51.805Z,4.30
2023-10-13T15:55:20.203Z,4.60
2023-10-13T15:57:54.232Z,4.07
2023-10-13T16:00:27.630Z,4.37
2023-10-13T16:02:57.949Z,4.00
2023-10-13T16:05:26.715Z,4.40
2023-10-13T16:07:55.825Z,4.30
2023-10-13T16:10:24.267Z,4.43
2023-10-13T16:12:52.568Z,4.13
2023-10-13T16:15:22.522Z,4.60
2023-10-13T16:17:54.614Z,4.20
2023-10-13T16:20:23.761Z,4.50
2023-10-13T16:22:51.988Z,4.60
2023-10-13T16:25:22.325Z,4.07
2023-10-13T16:27:50.790Z,3.87
2023-10-13T16:30:20.681Z,4.20
2023-10-13T16:32:50.568Z,4.30
2023-10-13T16:35:20.710Z,4.97
2023-10-13T16:37:51.730Z,4.43
2023-10-13T16:40:20.496Z,4.10
2023-10-13T16:42:49.486Z,4.27
2023-10-13T16:45:21.591Z,4.40
2023-10-13T16:47:50.771Z,4.23
2023-10-13T16:50:22.708Z,4.43
2023-10-13T16:52:51.011Z,4.20
2023-10-13T16:55:21.067Z,4.20
2023-10-13T16:57:51.342Z,4.13
2023-10-13T17:00:20.132Z,4.57
2023-10-13T17:02:48.564Z,4.63
2023-10-13T17:05:18.940Z,4.63
2023-10-13T17:07:49.063Z,4.27
2023-10-13T17:10:17.816Z,3.77
2023-10-13T17:12:47.109Z,4.27
2023-10-13T17:15:22.788Z,4.50
2023-10-13T17:17:51.803Z,4.00
2023-10-13T17:20:20.134Z,4.73
2023-10-13T17:22:50.693Z,4.63
2023-10-13T17:25:19.073Z,4.17
2023-10-13T17:27:47.388Z,4.33
2023-10-13T17:30:15.781Z,4.63
2023-10-13T17:32:45.821Z,4.70
2023-10-13T17:35:14.271Z,4.23
2023-10-13T17:37:44.658Z,4.30
2023-10-13T17:40:17.490Z,4.60
2023-10-13T17:42:50.262Z,4.23
2023-10-13T17:45:18.782Z,4.07
2023-10-13T17:47:47.241Z,4.97
2023-10-13T17:50:15.569Z,5.00
2023-10-13T17:52:46.045Z,4.73
2023-10-13T17:55:17.558Z,4.73
2023-10-13T17:57:47.159Z,4.80
2023-10-13T18:00:16.580Z,4.23
2023-10-13T18:02:45.115Z,4.80
2023-10-13T18:05:13.939Z,4.27
2023-10-13T18:07:43.810Z,4.33
2023-10-13T18:10:14.097Z,4.97
2023-10-13T18:12:43.900Z,4.97
2023-10-13T18:15:14.871Z,5.20
2023-10-13T18:17:43.408Z,4.83
2023-10-13T18:20:16.167Z,5.13
2023-10-13T18:22:44.671Z,5.00
2023-10-13T18:25:14.160Z,5.60
2023-10-13T18:27:43.842Z,4.93
2023-10-13T18:30:13.470Z,5.80
2023-10-13T18:32:42.468Z,5.13
2023-10-13T18:35:12.549Z,4.60
2023-10-13T18:37:42.640Z,4.80
2023-10-13T18:40:14.111Z,4.57
2023-10-13T18:42:48.710Z,4.83
2023-10-13T18:45:20.973Z,5.00
2023-10-13T18:47:53.431Z,4.67
2023-10-13T18:50:24.150Z,4.73
2023-10-13T18:52:53.751Z,5.20
2023-10-13T18:55:22.017Z,4.93
2023-10-13T18:57:51.701Z,5.17
2023-10-13T19:00:24.526Z,5.10
2023-10-13T19:02:52.974Z,5.20
2023-10-13T19:05:22.073Z,5.70
2023-10-13T19:07:51.602Z,5.23
2023-10-13T19:10:21.102Z,4.97
2023-10-13T19:12:51.821Z,5.17
2023-10-13T19:15:26.084Z,5.30
2023-10-13T19:17:54.841Z,5.10
2023-10-13T19:20:23.227Z,4.60
2023-10-13T19:22:53.953Z,5.20
2023-10-13T19:25:25.826Z,5.30
2023-10-13T19:27:55.030Z,5.17
2023-10-13T19:30:24.833Z,6.20
2023-10-13T19:32:54.033Z,5.67
2023-10-13T19:35:23.301Z,6.03
2023-10-13T19:37:51.718Z,5.97
2023-10-13T19:40:20.025Z,5.83
2023-10-13T19:42:48.370Z,5.70
2023-10-13T19:45:16.766Z,5.93
2023-10-13T19:47:46.977Z,5.53
2023-10-13T19:50:15.594Z,5.30
2023-10-13T19:52:44.125Z,5.50
2023-10-13T19:55:18.006Z,6.13
2023-10-13T19:57:47.213Z,6.07
2023-10-13T20:00:22.061Z,6.30
2023-10-13T20:02:53.395Z,5.50
2023-10-13T20:05:22.564Z,5.00
2023-10-13T20:07:51.380Z,6.70
2023-10-13T20:10:20.190Z,6.07
2023-10-13T20:12:48.728Z,5.63
2023-10-13T20:15:17.367Z,5.87
2023-10-13T20:17:46.031Z,6.27
2023-10-13T20:20:18.764Z,5.90
2023-10-13T20:22:47.326Z,5.80
2023-10-13T20:25:16.479Z,6.07
2023-10-13T20:27:46.007Z,6.03
2023-10-13T20:30:16.419Z,6.60
2023-10-13T20:35:19.441Z,6.27
2023-10-13T20:37:50.843Z,5.20
2023-10-13T20:40:24.723Z,5.80
2023-10-13T20:43:00.841Z,6.87
2023-10-13T20:45:29.398Z,6.90
2023-10-13T20:47:57.793Z,6.20
2023-10-13T20:50:27.484Z,5.37
2023-10-13T20:52:57.708Z,6.00
2023-10-13T20:55:26.475Z,5.97
2023-10-13T20:57:56.227Z,6.30
2023-10-13T21:00:27.272Z,6.50
2023-10-13T21:02:56.526Z,6.30
2023-10-13T21:05:25.757Z,5.93
2023-10-13T21:07:56.724Z,6.10
2023-10-13T21:10:26.079Z,6.93
2023-10-13T21:12:55.916Z,6.73
2023-10-13T21:15:25.794Z,6.30
2023-10-13T21:17:55.021Z,6.40
2023-10-13T21:20:23.535Z,6.13
2023-10-13T21:22:52.894Z,6.70
2023-10-13T21:25:25.107Z,7.00
2023-10-13T21:27:57.290Z,6.03
2023-10-13T21:30:27.580Z,6.17
2023-10-13T21:32:58.275Z,6.73
2023-10-13T21:35:27.946Z,6.40
2023-10-13T21:37:58.266Z,6.47
2023-10-13T21:40:31.554Z,6.83
2023-10-13T21:43:06.162Z,6.63
2023-10-13T21:45:34.914Z,6.60
2023-10-13T21:48:04.109Z,7.20
2023-10-13T21:50:32.376Z,7.30
2023-10-13T21:53:00.797Z,6.90
2023-10-13T21:55:30.461Z,6.57
2023-10-13T21:57:58.781Z,7.47
2023-10-13T22:00:54.930Z,6.40
2023-10-13T22:03:23.856Z,6.70
2023-10-13T22:05:52.377Z,7.03
2023-10-13T22:08:20.659Z,7.43
2023-10-13T22:10:50.693Z,7.37
2023-10-13T22:13:19.032Z,7.17
2023-10-13T22:15:47.384Z,6.73
2023-10-13T22:18:15.859Z,6.83
2023-10-13T22:20:45.752Z,7.00
2023-10-13T22:23:14.188Z,7.00
2023-10-13T22:25:42.492Z,7.70
2023-10-13T22:28:14.457Z,7.63
2023-10-13T22:30:43.819Z,7.87
2023-10-13T22:33:13.619Z,7.17
2023-10-13T22:35:42.909Z,7.87
2023-10-13T22:38:12.435Z,8.77
2023-10-13T22:40:41.999Z,8.20
2023-10-13T22:43:11.834Z,8.27
2023-10-13T22:45:42.419Z,7.80
2023-10-13T22:48:11.066Z,8.10
2023-10-13T22:50:39.475Z,8.57
2023-10-13T22:53:07.788Z,8.90
2023-10-13T22:55:37.874Z,8.23
2023-10-13T22:58:10.901Z,8.57
2023-10-13T23:00:50.074Z,8.63
2023-10-13T23:03:19.648Z,8.47
2023-10-13T23:05:55.731Z,8.27
2023-10-13T23:08:35.560Z,7.83
2023-10-13T23:11:15.140Z,7.87
2023-10-13T23:13:43.756Z,8.37
2023-10-13T23:16:13.518Z,7.97
2023-10-13T23:18:46.530Z,7.30
2023-10-13T23:21:15.372Z,8.17
2023-10-13T23:23:45.439Z,7.63
2023-10-13T23:26:16.017Z,8.20
2023-10-13T23:28:47.059Z,8.10
2023-10-13T23:31:16.959Z,8.43
2023-10-13T23:33:45.379Z,9.17
2023-10-13T23:36:14.393Z,8.57
2023-10-13T23:38:43.054Z,8.40
2023-10-13T23:41:13.968Z,8.23
2023-10-13T23:43:45.775Z,8.50
2023-10-13T23:46:14.757Z,8.50
2023-10-13T23:48:45.571Z,8.47
2023-10-13T23:51:21.133Z,9.03
2023-10-13T23:53:50.137Z,7.60
2023-10-13T23:56:30.137Z,7.50
2023-10-13T23:59:07.524Z,7.77
